Kingsburg, CA (93631)

1:15 PM PST on November 27, 2014 (GMT -0800)
Jensen McClarty, LLC | Change Station
CLOSE
Current Station
Personal Weather Station
Location: Kingsburg, CA
Elevation: 282 ft
Nearby Weather Stations

Elev 282 ft 36.43 °N, 119.52 °W | Updated 9 seconds ago

Partly Cloudy
Partly Cloudy
68.2 °F
Feels Like 68.2 °F
N
2.0
Wind Variable Wind from NW
Gusts 5.0 mph

Today
High -- | Low -- °F
--% Chance of Precip.
Yesterday
High -- | Low -- °F
Precip. -- in
6:47 AM 4:43 PM
Waxing Crescent, 33% visible
Pressure 30.13 in
Visibility 2.5 miles
Clouds Clear
Dew Point 52 °F
Humidity 56%
Rainfall 0.00 in
Snow Depth Not available.
UV 2.0 out of 12
Pollen 1.20 out of 12
Air Quality Not available.
Flu Activity Not available.
METAR KHJO 272053Z AUTO 28003KT 2 1/2SM HZ CLR 19/09 A3012 RMK AO2 SLP203 T01890089 58018

More Conditions Fewer Conditions

Pressure 30.13 in
Visibility 2.5 miles
Clouds Clear
Dew Point 52 °F
Humidity 56%
Rainfall 0.00 in
Snow Depth Not available.
UV 2.0 out of 12
Pollen 1.20 out of 12
Air Quality Not available.
Flu Activity Not available.
METAR KHJO 272053Z AUTO 28003KT 2 1/2SM HZ CLR 19/09 A3012 RMK AO2 SLP203 T01890089 58018

More Conditions Fewer Conditions

10-Day Weather Forecast

Almanac

Astronomy

Nov. 27, 2014 Rise Set
Actual Time
Civil Twilight
Nautical Twilight
Astronomical Twilight
Moon
Length of Visible Light
Length of Day
Tomorrow will be .
, % of the Moon is Illuminated

Today's Extremes

State Highs State Lows

Community

WunderPhotos

Upload Photos

1,774,106 photos uploaded!

WunderBlogs® & News

Nearby

Air Quality

  Air Quality AQ Index Pollutant
Not available.

Snow Depth

Station Depth Elevation

Earthquake Activity

City Distance Mag. Time & Date
Minimum magnitude displayed is 2.5.

Coastal Water Temperatures

Place Temperature

Nearby Weather Stations